createdAt,value
2022-08-03T00:01:30.400Z,70.50
2022-08-03T00:03:57.340Z,70.40
2022-08-03T00:06:24.232Z,70.50
2022-08-03T00:08:51.179Z,70.50
2022-08-03T00:11:18.134Z,70.70
2022-08-03T00:13:45.105Z,70.60
2022-08-03T00:16:12.195Z,70.50
2022-08-03T00:18:39.460Z,70.50
2022-08-03T00:21:06.414Z,70.90
2022-08-03T00:23:51.616Z,70.80
2022-08-03T00:26:22.880Z,70.90
2022-08-03T00:28:50.710Z,70.80
2022-08-03T00:31:23.098Z,70.80
2022-08-03T00:34:05.202Z,70.40
2022-08-03T00:36:33.172Z,70.10
2022-08-03T00:39:00.055Z,70.00
2022-08-03T00:41:27.061Z,69.70
2022-08-03T00:43:54.133Z,69.70
2022-08-03T00:46:22.572Z,69.40
2022-08-03T00:48:51.034Z,69.40
2022-08-03T00:51:19.188Z,69.00
2022-08-03T00:53:46.233Z,69.00
2022-08-03T00:56:17.695Z,69.40
2022-08-03T00:58:45.948Z,69.00
2022-08-03T01:01:13.658Z,69.20
2022-08-03T01:03:41.268Z,68.90
2022-08-03T01:06:17.819Z,68.90
2022-08-03T01:08:48.667Z,68.80
2022-08-03T01:11:31.080Z,68.70
2022-08-03T01:14:18.745Z,68.60
2022-08-03T01:16:52.666Z,68.90
2022-08-03T01:19:40.969Z,68.90
2022-08-03T01:22:42.275Z,68.80
2022-08-03T01:25:46.423Z,68.40
2022-08-03T01:28:54.841Z,68.60
2022-08-03T01:31:27.583Z,68.60
2022-08-03T01:33:59.479Z,68.70
2022-08-03T01:36:51.126Z,68.90
2022-08-03T01:39:19.790Z,68.90
2022-08-03T01:41:59.605Z,68.80
2022-08-03T01:44:31.036Z,68.80
2022-08-03T01:47:02.405Z,68.70
2022-08-03T01:49:32.034Z,68.80
2022-08-03T01:52:04.992Z,69.00
2022-08-03T01:54:46.579Z,67.90
2022-08-03T01:57:15.057Z,68.20
2022-08-03T01:59:43.286Z,68.00
2022-08-03T02:02:19.515Z,67.90
2022-08-03T02:05:01.926Z,67.80
2022-08-03T02:07:30.534Z,68.10
2022-08-03T02:09:59.667Z,67.60
2022-08-03T02:12:28.824Z,67.90
2022-08-03T02:14:57.033Z,67.60
2022-08-03T02:17:38.474Z,67.90
2022-08-03T02:20:11.725Z,68.10
2022-08-03T02:22:43.056Z,68.10
2022-08-03T02:25:12.183Z,67.80
2022-08-03T02:27:45.487Z,67.90
2022-08-03T02:30:14.448Z,67.70
2022-08-03T02:32:46.194Z,67.90
2022-08-03T02:35:16.131Z,68.00
2022-08-03T02:37:49.771Z,68.10
2022-08-03T02:40:20.293Z,68.00
2022-08-03T02:42:49.561Z,68.20
2022-08-03T02:45:18.435Z,67.80
2022-08-03T02:47:53.903Z,67.70
2022-08-03T02:50:24.588Z,68.00
2022-08-03T02:52:53.344Z,68.00
2022-08-03T02:55:22.643Z,67.60
2022-08-03T02:57:51.535Z,67.50
2022-08-03T03:00:27.190Z,67.30
2022-08-03T03:03:01.564Z,67.60
2022-08-03T03:05:55.589Z,67.10
2022-08-03T03:08:25.736Z,67.40
2022-08-03T03:10:55.505Z,67.40
2022-08-03T03:13:23.060Z,67.30
2022-08-03T03:15:50.991Z,67.50
2022-08-03T03:18:22.237Z,66.80
2022-08-03T03:20:51.992Z,67.60
2022-08-03T03:23:21.957Z,67.10
2022-08-03T03:25:49.536Z,67.30
2022-08-03T03:28:16.891Z,66.80
2022-08-03T03:30:44.389Z,67.20
2022-08-03T03:33:12.516Z,67.10
2022-08-03T03:35:42.417Z,67.60
2022-08-03T03:38:09.592Z,67.10
2022-08-03T03:40:37.597Z,67.20
2022-08-03T03:43:08.571Z,67.70
2022-08-03T03:45:36.048Z,67.50
2022-08-03T03:48:05.458Z,67.10
2022-08-03T03:50:33.984Z,67.10
2022-08-03T03:53:04.750Z,66.80
2022-08-03T03:55:34.516Z,67.00
2022-08-03T03:58:01.564Z,66.60
2022-08-03T04:00:28.537Z,66.60
2022-08-03T04:02:55.487Z,66.40
2022-08-03T04:05:45.609Z,66.20
2022-08-03T04:08:36.815Z,66.20
2022-08-03T04:11:12.918Z,66.50
2022-08-03T04:14:18.010Z,66.40
2022-08-03T04:16:53.568Z,66.30
2022-08-03T04:19:28.361Z,66.00
2022-08-03T04:22:00.037Z,66.50
2022-08-03T04:24:50.877Z,65.80
2022-08-03T04:27:22.121Z,66.00
2022-08-03T04:29:53.208Z,65.20
2022-08-03T04:32:23.689Z,65.50
2022-08-03T04:34:51.044Z,65.00
2022-08-03T04:37:33.381Z,64.30
2022-08-03T04:40:03.136Z,65.00
2022-08-03T04:42:33.289Z,64.90
2022-08-03T04:45:02.739Z,65.20
2022-08-03T04:47:33.300Z,65.70
2022-08-03T04:50:09.169Z,65.20
2022-08-03T04:52:39.883Z,65.40
2022-08-03T04:55:07.370Z,64.70
2022-08-03T04:57:34.348Z,64.60
2022-08-03T05:00:03.619Z,64.30
2022-08-03T05:02:31.936Z,64.90
2022-08-03T05:04:59.383Z,64.50
2022-08-03T05:07:26.439Z,65.10
2022-08-03T05:10:03.738Z,64.40
2022-08-03T05:12:33.837Z,65.10
2022-08-03T05:15:01.268Z,64.40
2022-08-03T05:17:28.698Z,63.90
2022-08-03T05:19:56.175Z,64.60
2022-08-03T05:22:23.604Z,64.10
2022-08-03T05:24:50.662Z,64.30
2022-08-03T05:27:19.479Z,64.30
2022-08-03T05:29:47.291Z,63.10
2022-08-03T05:32:14.528Z,62.00
2022-08-03T05:34:41.630Z,61.40
2022-08-03T05:37:09.016Z,61.40
2022-08-03T05:39:36.334Z,59.50
2022-08-03T05:42:03.600Z,58.20
2022-08-03T05:44:31.789Z,57.30
2022-08-03T05:46:59.510Z,56.20
2022-08-03T05:49:26.579Z,55.70
2022-08-03T05:51:59.964Z,54.40
2022-08-03T05:54:56.470Z,52.80
2022-08-03T05:57:27.698Z,51.70
2022-08-03T05:59:58.666Z,51.70
2022-08-03T06:02:28.830Z,51.10
2022-08-03T06:04:55.809Z,50.20
2022-08-03T06:07:22.900Z,48.80
2022-08-03T06:10:37.650Z,48.20
2022-08-03T06:12:36.887Z,47.50
2022-08-03T06:15:07.811Z,46.40
2022-08-03T06:17:46.082Z,45.80
2022-08-03T06:20:13.215Z,45.40
2022-08-03T06:22:44.501Z,44.80
2022-08-03T06:25:19.428Z,45.00
2022-08-03T06:27:48.602Z,45.10
2022-08-03T06:30:21.016Z,45.40
2022-08-03T06:32:51.808Z,46.10
2022-08-03T06:35:20.043Z,46.30
2022-08-03T06:37:48.755Z,46.50
2022-08-03T06:40:32.182Z,46.70
2022-08-03T06:43:01.002Z,45.90
2022-08-03T06:45:32.116Z,45.90
2022-08-03T06:48:03.775Z,46.90
2022-08-03T06:50:31.199Z,47.60
2022-08-03T06:52:58.579Z,47.30
2022-08-03T06:55:25.487Z,48.10
2022-08-03T06:57:52.467Z,48.40
2022-08-03T07:00:19.751Z,47.60
2022-08-03T07:02:46.794Z,47.00
2022-08-03T07:05:14.699Z,47.40
2022-08-03T07:07:41.644Z,48.10
2022-08-03T07:10:09.001Z,48.00
2022-08-03T07:12:37.112Z,47.80
2022-08-03T07:15:20.603Z,47.80
2022-08-03T07:18:07.175Z,47.80
2022-08-03T07:20:34.264Z,47.80
2022-08-03T07:23:01.237Z,48.60
2022-08-03T07:25:28.231Z,48.10
2022-08-03T07:27:55.172Z,47.90
2022-08-03T07:30:23.430Z,48.70
2022-08-03T07:32:50.866Z,49.80
2022-08-03T07:35:24.416Z,49.90
2022-08-03T07:37:54.473Z,50.20
2022-08-03T07:40:22.256Z,50.50
2022-08-03T07:42:52.035Z,50.40
2022-08-03T07:45:23.412Z,50.70
2022-08-03T07:47:53.676Z,50.20
2022-08-03T07:50:21.814Z,50.90
2022-08-03T07:52:53.159Z,50.40
2022-08-03T07:55:23.347Z,50.20
2022-08-03T07:58:19.213Z,50.40
2022-08-03T08:00:55.483Z,50.50
2022-08-03T08:03:22.402Z,49.20
2022-08-03T08:05:50.068Z,49.90
2022-08-03T08:08:17.015Z,49.80
2022-08-03T08:10:57.895Z,50.50
2022-08-03T08:13:25.690Z,50.00
2022-08-03T08:15:52.603Z,49.00
2022-08-03T08:18:19.471Z,48.90
2022-08-03T08:20:49.488Z,48.00
2022-08-03T08:23:37.879Z,48.60
2022-08-03T08:26:10.101Z,49.10
2022-08-03T08:28:37.061Z,48.70
2022-08-03T08:31:05.504Z,49.30
2022-08-03T08:34:01.497Z,49.40
2022-08-03T08:36:21.706Z,49.40
2022-08-03T08:38:48.711Z,49.90
2022-08-03T08:41:16.034Z,49.50
2022-08-03T08:43:43.488Z,48.90
2022-08-03T08:46:22.810Z,50.20
2022-08-03T08:48:55.245Z,49.00
2022-08-03T08:51:24.669Z,49.00
2022-08-03T08:54:12.767Z,48.40
2022-08-03T08:56:39.895Z,46.90
2022-08-03T08:59:07.242Z,46.10
2022-08-03T09:01:36.685Z,45.30
2022-08-03T09:04:06.867Z,44.20
2022-08-03T09:06:33.936Z,43.90
2022-08-03T09:09:00.933Z,42.30
2022-08-03T09:11:52.551Z,42.90
2022-08-03T09:14:37.132Z,42.80
2022-08-03T09:17:03.475Z,42.50
2022-08-03T09:19:32.277Z,42.00
2022-08-03T09:22:16.818Z,42.30
2022-08-03T09:25:22.850Z,42.00
2022-08-03T09:27:47.513Z,41.50
2022-08-03T09:30:33.379Z,41.00
2022-08-03T09:33:08.322Z,40.90
2022-08-03T09:35:54.203Z,40.30
2022-08-03T09:38:28.134Z,40.10
2022-08-03T09:41:00.095Z,40.40
2022-08-03T09:43:28.181Z,40.40
2022-08-03T09:46:04.322Z,40.50
2022-08-03T09:48:31.691Z,40.40
2022-08-03T09:51:14.218Z,40.20
2022-08-03T09:53:58.792Z,40.30
2022-08-03T09:56:42.884Z,40.40
2022-08-03T09:59:11.524Z,41.10
2022-08-03T10:01:42.477Z,41.20
2022-08-03T10:04:17.289Z,41.80
2022-08-03T10:06:45.990Z,41.70
2022-08-03T10:09:16.294Z,41.40
2022-08-03T10:11:44.220Z,41.40
2022-08-03T10:14:19.623Z,40.80
2022-08-03T10:16:48.277Z,40.80
2022-08-03T10:19:15.785Z,41.70
2022-08-03T10:21:49.524Z,42.60
2022-08-03T10:24:20.246Z,40.40
2022-08-03T10:26:49.998Z,41.60
2022-08-03T10:29:24.974Z,42.80
2022-08-03T10:31:58.429Z,43.50
2022-08-03T10:34:35.582Z,41.10
2022-08-03T10:37:07.731Z,42.80
2022-08-03T10:39:36.203Z,43.80
2022-08-03T10:42:04.303Z,43.80
2022-08-03T10:44:40.272Z,44.20
2022-08-03T10:47:10.592Z,44.60
2022-08-03T10:49:38.366Z,42.50
2022-08-03T10:52:13.896Z,42.80
2022-08-03T10:55:12.037Z,43.40
2022-08-03T10:57:47.430Z,44.40
2022-08-03T11:00:22.408Z,41.70
2022-08-03T11:03:09.408Z,41.30
2022-08-03T11:05:44.398Z,42.00
2022-08-03T11:08:37.814Z,43.60
2022-08-03T11:11:20.072Z,41.70
2022-08-03T11:14:19.907Z,42.20
2022-08-03T11:17:05.870Z,45.30
2022-08-03T11:19:58.227Z,45.90
2022-08-03T11:22:28.267Z,46.50
2022-08-03T11:24:56.373Z,45.80
2022-08-03T11:27:36.097Z,44.40
2022-08-03T11:30:10.621Z,47.30
2022-08-03T11:32:40.504Z,47.60
2022-08-03T11:35:23.818Z,48.30
2022-08-03T11:38:05.818Z,47.60
2022-08-03T11:40:40.109Z,48.40
2022-08-03T11:43:31.356Z,48.90
2022-08-03T11:46:03.633Z,49.50
2022-08-03T11:48:38.689Z,49.70
2022-08-03T11:51:18.652Z,47.40
2022-08-03T11:53:47.875Z,47.10
2022-08-03T11:56:14.823Z,48.80
2022-08-03T11:59:02.757Z,48.10
2022-08-03T12:01:37.632Z,49.50
2022-08-03T12:04:05.492Z,49.20
2022-08-03T12:06:52.485Z,50.00
2022-08-03T12:09:21.276Z,49.40
2022-08-03T12:11:56.156Z,48.20
2022-08-03T12:14:49.908Z,49.00
2022-08-03T12:17:16.371Z,43.50
2022-08-03T12:19:44.066Z,45.90
2022-08-03T12:22:11.094Z,48.80
2022-08-03T12:24:42.772Z,48.50
2022-08-03T12:27:09.942Z,50.40
2022-08-03T12:29:37.426Z,50.30
2022-08-03T12:32:04.564Z,50.90
2022-08-03T12:34:48.352Z,50.80
2022-08-03T12:37:29.244Z,48.50
2022-08-03T12:40:05.240Z,47.20
2022-08-03T12:42:38.381Z,47.00
2022-08-03T12:45:26.432Z,47.10
2022-08-03T12:48:01.332Z,50.60
2022-08-03T12:50:32.246Z,50.20
2022-08-03T12:53:00.751Z,46.40
2022-08-03T12:55:56.221Z,49.50
2022-08-03T12:58:34.041Z,50.60
2022-08-03T13:01:05.049Z,46.30
2022-08-03T13:03:50.437Z,46.80
2022-08-03T13:06:25.220Z,44.30
2022-08-03T13:09:12.385Z,43.60
2022-08-03T13:11:57.849Z,43.10
2022-08-03T13:14:26.240Z,43.90
2022-08-03T13:16:53.163Z,45.60
2022-08-03T13:19:20.191Z,44.50
2022-08-03T13:22:03.056Z,46.30
2022-08-03T13:24:32.349Z,46.60
2022-08-03T13:27:00.466Z,43.80
2022-08-03T13:29:27.419Z,43.80
2022-08-03T13:31:54.382Z,43.70
2022-08-03T13:34:23.796Z,44.20
2022-08-03T13:37:09.383Z,43.40
2022-08-03T13:39:58.223Z,45.40
2022-08-03T13:42:24.683Z,43.20
2022-08-03T13:44:51.727Z,47.30
2022-08-03T13:47:20.134Z,43.20
2022-08-03T13:50:00.026Z,43.20
2022-08-03T13:52:33.321Z,43.10
2022-08-03T13:55:01.231Z,41.10
2022-08-03T13:58:03.515Z,41.70
2022-08-03T14:00:27.200Z,43.30
2022-08-03T14:03:02.903Z,41.70
2022-08-03T14:05:33.157Z,43.70
2022-08-03T14:08:05.776Z,41.40
2022-08-03T14:10:37.730Z,41.20
2022-08-03T14:13:05.149Z,41.00
2022-08-03T14:15:32.195Z,40.20
2022-08-03T14:18:04.524Z,41.00
2022-08-03T14:20:37.177Z,41.70
2022-08-03T14:23:07.047Z,42.50
2022-08-03T14:25:44.496Z,42.00
2022-08-03T14:28:18.712Z,42.00
2022-08-03T14:30:46.095Z,40.70
2022-08-03T14:33:12.981Z,42.20
2022-08-03T14:35:40.023Z,40.90
2022-08-03T14:38:07.035Z,43.20
2022-08-03T14:40:34.042Z,42.50
2022-08-03T14:43:01.085Z,42.40
2022-08-03T14:45:28.171Z,42.80
2022-08-03T14:50:34.601Z,41.60
2022-08-03T14:50:46.757Z,41.30
2022-08-03T14:53:17.752Z,41.40
2022-08-03T14:55:49.694Z,40.50
2022-08-03T14:58:20.838Z,39.50
2022-08-03T15:00:48.796Z,41.40
2022-08-03T15:03:17.280Z,40.00
2022-08-03T15:05:45.023Z,39.70
2022-08-03T15:08:11.948Z,40.10
2022-08-03T15:10:44.133Z,41.10
2022-08-03T15:13:13.485Z,40.70
2022-08-03T15:15:40.782Z,42.00
2022-08-03T15:18:08.166Z,40.80
2022-08-03T15:20:44.934Z,42.90
2022-08-03T15:23:14.381Z,43.90
2022-08-03T15:26:32.048Z,43.30
2022-08-03T15:28:29.586Z,40.80
2022-08-03T15:30:56.612Z,40.60
2022-08-03T15:33:23.512Z,40.30
2022-08-03T15:35:50.493Z,41.80
2022-08-03T15:38:17.751Z,41.10
2022-08-03T17:08:10.551Z,44.70
2022-08-03T17:10:41.720Z,46.10
2022-08-03T17:13:11.603Z,44.30
2022-08-03T17:16:01.073Z,44.20
2022-08-03T17:18:37.393Z,44.60
2022-08-03T17:21:10.515Z,45.20
2022-08-03T17:23:45.724Z,44.20
2022-08-03T17:26:21.137Z,47.50
2022-08-03T17:28:57.653Z,44.50
2022-08-03T17:31:31.914Z,45.90
2022-08-03T17:34:02.117Z,46.10
2022-08-03T17:39:30.776Z,44.60
2022-08-03T17:42:05.383Z,44.40
2022-08-03T17:44:53.444Z,44.10
2022-08-03T17:47:21.440Z,45.20
2022-08-03T17:49:48.655Z,45.10
2022-08-03T17:52:21.973Z,45.30
2022-08-03T17:55:55.587Z,44.50
2022-08-03T17:58:03.555Z,44.70
2022-08-03T18:00:52.129Z,44.50
2022-08-03T18:03:22.135Z,44.30
2022-08-03T18:06:11.682Z,43.10
2022-08-03T18:08:50.571Z,43.40
2022-08-03T18:11:22.173Z,43.00
2022-08-03T18:14:23.950Z,45.00
2022-08-03T18:17:01.810Z,43.40
2022-08-03T18:20:02.185Z,43.90
2022-08-03T18:22:20.665Z,43.00
2022-08-03T18:24:49.792Z,45.40
2022-08-03T18:27:17.244Z,44.20
2022-08-03T18:29:47.093Z,44.00
2022-08-03T18:32:16.864Z,44.70
2022-08-03T18:34:54.219Z,44.30
2022-08-03T18:37:25.620Z,45.60
2022-08-03T18:39:58.129Z,44.90
2022-08-03T18:42:26.288Z,44.90
2022-08-03T18:44:55.854Z,45.10
2022-08-03T18:47:58.298Z,44.90
2022-08-03T18:50:29.366Z,44.50
2022-08-03T18:53:16.363Z,44.90
2022-08-03T18:56:26.774Z,44.70
2022-08-03T18:59:30.146Z,45.40
2022-08-03T19:02:09.273Z,45.70
2022-08-03T19:04:46.544Z,46.00
2022-08-03T19:10:09.868Z,46.00
2022-08-03T19:12:50.431Z,46.50
2022-08-03T19:15:36.125Z,46.60
2022-08-03T19:18:08.913Z,46.50
2022-08-03T19:20:38.347Z,47.00
2022-08-03T19:23:06.649Z,47.50
2022-08-03T19:25:38.707Z,47.50
2022-08-03T19:28:09.174Z,48.40
2022-08-03T19:30:38.985Z,48.30
2022-08-03T19:33:07.888Z,48.20
2022-08-03T19:35:52.257Z,48.70
2022-08-03T19:38:28.486Z,48.60
2022-08-03T19:41:03.054Z,49.60
2022-08-03T19:43:32.931Z,48.90
2022-08-03T19:46:16.986Z,49.20
2022-08-03T19:48:54.039Z,49.70
2022-08-03T19:51:26.979Z,50.10
2022-08-03T19:54:16.131Z,50.00
2022-08-03T19:56:48.643Z,50.80
2022-08-03T19:59:16.662Z,50.50
2022-08-03T20:01:50.218Z,50.30
2022-08-03T20:04:18.597Z,50.30
2022-08-03T20:06:49.665Z,50.60
2022-08-03T20:09:18.166Z,50.90
2022-08-03T20:11:46.710Z,51.70
2022-08-03T20:14:20.786Z,51.10
2022-08-03T20:16:54.025Z,50.70
2022-08-03T20:19:21.527Z,50.90
2022-08-03T20:21:49.939Z,50.90
2022-08-03T20:24:25.051Z,51.00
2022-08-03T20:26:58.156Z,51.30
2022-08-03T20:30:05.227Z,51.40
2022-08-03T20:32:24.438Z,51.20
2022-08-03T20:34:52.014Z,51.40
2022-08-03T20:47:04.058Z,51.30
2022-08-03T20:49:31.448Z,52.40
2022-08-03T20:52:18.783Z,51.20
2022-08-03T20:54:46.438Z,51.50
2022-08-03T20:57:13.815Z,51.50
2022-08-03T20:59:50.271Z,51.50
2022-08-03T21:02:30.323Z,51.50
2022-08-03T21:05:09.156Z,51.70
2022-08-03T21:08:06.411Z,52.20
2022-08-03T21:10:38.162Z,52.00
2022-08-03T21:13:01.364Z,45.70
2022-08-03T21:13:17.668Z,52.00
2022-08-03T21:16:01.184Z,52.20
2022-08-03T21:18:42.719Z,52.10
2022-08-03T21:21:13.625Z,52.80
2022-08-03T21:23:49.129Z,52.40
2022-08-03T21:26:22.337Z,52.00
2022-08-03T21:28:50.783Z,52.50
2022-08-03T21:31:19.831Z,52.20
2022-08-03T21:34:03.227Z,52.40
2022-08-03T21:36:32.340Z,52.00
2022-08-03T21:39:00.747Z,52.20
2022-08-03T21:41:31.060Z,52.00
2022-08-03T21:43:58.101Z,51.90
2022-08-03T21:46:27.389Z,52.20
2022-08-03T21:50:07.810Z,51.60
2022-08-03T21:51:49.439Z,52.10
2022-08-03T21:54:19.040Z,52.40
2022-08-03T21:56:47.747Z,51.90
2022-08-03T21:59:19.984Z,52.00
2022-08-03T22:01:55.372Z,52.60
2022-08-03T22:04:50.222Z,52.60
2022-08-03T22:07:13.753Z,52.60
2022-08-03T22:09:50.899Z,52.60
2022-08-03T22:12:24.415Z,52.90
2022-08-03T22:15:00.208Z,52.90
2022-08-03T22:17:55.037Z,52.40
2022-08-03T22:20:20.074Z,52.50
2022-08-03T22:22:55.375Z,52.80
2022-08-03T22:25:28.943Z,52.50
2022-08-03T22:27:57.031Z,52.00
2022-08-03T22:30:24.036Z,52.10
2022-08-03T22:32:53.819Z,51.90
2022-08-03T22:35:21.570Z,52.50
2022-08-03T22:37:54.485Z,52.70
2022-08-03T22:40:21.574Z,52.70
2022-08-03T22:42:50.511Z,52.50
2022-08-03T22:46:05.897Z,52.30
2022-08-03T22:48:08.000Z,51.90
2022-08-03T22:50:35.651Z,52.10
2022-08-03T22:53:02.597Z,52.20
2022-08-03T22:55:30.550Z,52.20
2022-08-03T22:57:57.442Z,52.20
2022-08-03T23:00:24.882Z,52.40
2022-08-03T23:02:54.697Z,52.20
2022-08-03T23:06:00.239Z,51.90
2022-08-03T23:08:14.705Z,52.70
2022-08-03T23:10:47.157Z,52.60
2022-08-03T23:13:17.653Z,52.60
2022-08-03T23:15:54.743Z,52.60
2022-08-03T23:18:23.325Z,52.50
2022-08-03T23:20:54.564Z,52.20
2022-08-03T23:23:23.634Z,52.50
2022-08-03T23:25:51.937Z,52.80
2022-08-03T23:28:19.175Z,52.50
2022-08-03T23:30:48.865Z,52.60
2022-08-03T23:33:17.452Z,52.30
2022-08-03T23:36:27.787Z,52.30
2022-08-03T23:38:44.715Z,52.20
2022-08-03T23:41:13.482Z,52.70
2022-08-03T23:43:51.264Z,52.30
2022-08-03T23:46:22.656Z,52.60
2022-08-03T23:48:51.045Z,52.00
2022-08-03T23:51:29.870Z,52.30
2022-08-03T23:54:31.534Z,51.90
2022-08-03T23:57:04.521Z,52.30
2022-08-03T23:59:37.307Z,51.90
